sensor_id;sensor_type;location;lat;lon;timestamp;temperature;humidity
76838;DHT22;65797;47.352;8.164;2023-04-24T00:32:50;10.30;1.00
76838;DHT22;65797;47.352;8.164;2023-04-24T00:35:16;10.40;1.00
76838;DHT22;65797;47.352;8.164;2023-04-24T00:37:41;10.40;1.00
76838;DHT22;65797;47.352;8.164;2023-04-24T01:03:59;10.10;15.90
76838;DHT22;65797;47.352;8.164;2023-04-24T01:55:40;9.90;99.90
76838;DHT22;65797;47.352;8.164;2023-04-24T04:50:17;9.00;1.00
76838;DHT22;65797;47.352;8.164;2023-04-24T04:52:43;9.10;1.00
76838;DHT22;65797;47.352;8.164;2023-04-24T04:55:09;9.10;1.00
76838;DHT22;65797;47.352;8.164;2023-04-24T05:02:47;9.10;1.00
76838;DHT22;65797;47.352;8.164;2023-04-24T05:05:13;9.10;1.00
76838;DHT22;65797;47.352;8.164;2023-04-24T05:07:38;9.00;95.40
76838;DHT22;65797;47.352;8.164;2023-04-24T05:10:04;8.90;99.90
76838;DHT22;65797;47.352;8.164;2023-04-24T05:12:30;8.90;1.00
76838;DHT22;65797;47.352;8.164;2023-04-24T05:14:56;8.90;1.00
76838;DHT22;65797;47.352;8.164;2023-04-24T05:17:21;8.90;99.90
76838;DHT22;65797;47.352;8.164;2023-04-24T05:24:58;8.90;64.00
76838;DHT22;65797;47.352;8.164;2023-04-24T05:27:24;8.90;99.90
76838;DHT22;65797;47.352;8.164;2023-04-24T05:29:50;8.90;99.90
76838;DHT22;65797;47.352;8.164;2023-04-24T05:32:16;8.90;1.00
76838;DHT22;65797;47.352;8.164;2023-04-24T05:34:42;9.00;99.90
76838;DHT22;65797;47.352;8.164;2023-04-24T05:37:07;9.00;99.90
76838;DHT22;65797;47.352;8.164;2023-04-24T05:52:32;9.20;99.90
76838;DHT22;65797;47.352;8.164;2023-04-24T05:54:57;9.20;99.90
76838;DHT22;65797;47.352;8.164;2023-04-24T05:57:23;9.20;1.00
76838;DHT22;65797;47.352;8.164;2023-04-24T06:12:46;9.30;99.90
76838;DHT22;65797;47.352;8.164;2023-04-24T06:35:54;10.90;99.90
76838;DHT22;65797;47.352;8.164;2023-04-24T07:06:49;10.70;61.00
76838;DHT22;65797;47.352;8.164;2023-04-24T07:09:15;11.00;99.90
76838;DHT22;65797;47.352;8.164;2023-04-24T07:19:30;12.20;1.00
76838;DHT22;65797;47.352;8.164;2023-04-24T07:21:56;12.30;1.00
76838;DHT22;65797;47.352;8.164;2023-04-24T07:34:44;13.20;1.00
76838;DHT22;65797;47.352;8.164;2023-04-24T07:37:10;13.00;99.90
76838;DHT22;65797;47.352;8.164;2023-04-24T07:39:36;12.90;99.90
76838;DHT22;65797;47.352;8.164;2023-04-24T07:42:02;13.00;1.00
76838;DHT22;65797;47.352;8.164;2023-04-24T07:44:29;12.60;99.90
76838;DHT22;65797;47.352;8.164;2023-04-24T07:46:55;12.40;1.00
76838;DHT22;65797;47.352;8.164;2023-04-24T09:28:43;11.60;99.90
76838;DHT22;65797;47.352;8.164;2023-04-24T09:31:12;12.20;99.90
76838;DHT22;65797;47.352;8.164;2023-04-24T09:33:39;13.10;99.90
76838;DHT22;65797;47.352;8.164;2023-04-24T09:36:05;13.80;99.90
76838;DHT22;65797;47.352;8.164;2023-04-24T09:38:36;14.00;99.90
76838;DHT22;65797;47.352;8.164;2023-04-24T09:41:07;14.80;99.90
76838;DHT22;65797;47.352;8.164;2023-04-24T09:43:34;14.50;99.90
76838;DHT22;65797;47.352;8.164;2023-04-24T09:46:06;14.40;99.90
76838;DHT22;65797;47.352;8.164;2023-04-24T09:48:36;14.40;99.90
76838;DHT22;65797;47.352;8.164;2023-04-24T09:51:04;14.70;99.90
76838;DHT22;65797;47.352;8.164;2023-04-24T09:53:32;15.60;99.90
76838;DHT22;65797;47.352;8.164;2023-04-24T09:56:11;15.40;99.90
76838;DHT22;65797;47.352;8.164;2023-04-24T09:58:38;15.20;99.90
76838;DHT22;65797;47.352;8.164;2023-04-24T10:01:04;14.40;99.90
76838;DHT22;65797;47.352;8.164;2023-04-24T10:03:31;15.10;99.90
76838;DHT22;65797;47.352;8.164;2023-04-24T10:06:01;15.20;99.90
76838;DHT22;65797;47.352;8.164;2023-04-24T10:11:02;15.50;99.90
76838;DHT22;65797;47.352;8.164;2023-04-24T10:16:04;14.90;99.90
76838;DHT22;65797;47.352;8.164;2023-04-24T10:18:30;14.10;99.90
76838;DHT22;65797;47.352;8.164;2023-04-24T10:20:56;14.10;99.90
76838;DHT22;65797;47.352;8.164;2023-04-24T10:23:25;14.10;99.90
76838;DHT22;65797;47.352;8.164;2023-04-24T10:25:50;14.70;99.90
76838;DHT22;65797;47.352;8.164;2023-04-24T10:28:19;14.60;99.90
76838;DHT22;65797;47.352;8.164;2023-04-24T10:30:45;14.20;99.90
76838;DHT22;65797;47.352;8.164;2023-04-24T10:33:11;14.00;99.90
76838;DHT22;65797;47.352;8.164;2023-04-24T10:35:41;13.80;99.90
76838;DHT22;65797;47.352;8.164;2023-04-24T10:38:21;13.60;99.90
76838;DHT22;65797;47.352;8.164;2023-04-24T10:40:50;13.50;99.90
76838;DHT22;65797;47.352;8.164;2023-04-24T10:43:17;13.50;99.90
76838;DHT22;65797;47.352;8.164;2023-04-24T10:46:01;13.50;99.90
76838;DHT22;65797;47.352;8.164;2023-04-24T10:48:27;14.20;99.90
76838;DHT22;65797;47.352;8.164;2023-04-24T10:50:53;14.50;99.90
76838;DHT22;65797;47.352;8.164;2023-04-24T10:53:24;15.20;99.90
76838;DHT22;65797;47.352;8.164;2023-04-24T10:56:08;14.70;99.90
76838;DHT22;65797;47.352;8.164;2023-04-24T10:58:41;14.50;99.90
76838;DHT22;65797;47.352;8.164;2023-04-24T11:01:26;14.40;99.90
76838;DHT22;65797;47.352;8.164;2023-04-24T11:03:57;14.10;99.90
76838;DHT22;65797;47.352;8.164;2023-04-24T11:06:34;13.60;99.90
76838;DHT22;65797;47.352;8.164;2023-04-24T11:09:08;13.70;99.90
76838;DHT22;65797;47.352;8.164;2023-04-24T11:11:36;13.60;99.90
76838;DHT22;65797;47.352;8.164;2023-04-24T11:14:07;13.20;99.90
76838;DHT22;65797;47.352;8.164;2023-04-24T11:16:55;13.40;99.90
76838;DHT22;65797;47.352;8.164;2023-04-24T11:19:27;13.70;99.90
76838;DHT22;65797;47.352;8.164;2023-04-24T11:22:04;14.00;99.90
76838;DHT22;65797;47.352;8.164;2023-04-24T11:27:17;14.10;99.90
76838;DHT22;65797;47.352;8.164;2023-04-24T11:32:42;14.50;99.90
76838;DHT22;65797;47.352;8.164;2023-04-24T11:35:22;14.20;99.90
76838;DHT22;65797;47.352;8.164;2023-04-24T11:37:53;13.90;99.90
76838;DHT22;65797;47.352;8.164;2023-04-24T11:40:21;13.90;99.90
76838;DHT22;65797;47.352;8.164;2023-04-24T11:42:52;13.90;99.90
76838;DHT22;65797;47.352;8.164;2023-04-24T11:45:28;14.70;99.90
76838;DHT22;65797;47.352;8.164;2023-04-24T11:47:54;14.40;99.90
76838;DHT22;65797;47.352;8.164;2023-04-24T11:50:22;14.40;99.90
76838;DHT22;65797;47.352;8.164;2023-04-24T11:52:49;14.00;99.90
76838;DHT22;65797;47.352;8.164;2023-04-24T11:57:46;13.40;99.90
76838;DHT22;65797;47.352;8.164;2023-04-24T12:00:23;13.40;99.90
76838;DHT22;65797;47.352;8.164;2023-04-24T12:02:50;13.50;99.90
76838;DHT22;65797;47.352;8.164;2023-04-24T12:05:27;13.40;99.90
76838;DHT22;65797;47.352;8.164;2023-04-24T12:07:53;13.80;99.90
76838;DHT22;65797;47.352;8.164;2023-04-24T12:10:24;14.10;99.90
76838;DHT22;65797;47.352;8.164;2023-04-24T12:12:51;14.10;99.90
76838;DHT22;65797;47.352;8.164;2023-04-24T12:15:18;13.90;99.90
76838;DHT22;65797;47.352;8.164;2023-04-24T12:17:45;14.20;99.90
76838;DHT22;65797;47.352;8.164;2023-04-24T12:20:11;14.30;99.90
76838;DHT22;65797;47.352;8.164;2023-04-24T12:22:54;14.20;99.90
76838;DHT22;65797;47.352;8.164;2023-04-24T12:25:21;14.40;99.90
76838;DHT22;65797;47.352;8.164;2023-04-24T12:27:53;14.20;99.90
76838;DHT22;65797;47.352;8.164;2023-04-24T12:30:19;13.70;99.90
76838;DHT22;65797;47.352;8.164;2023-04-24T12:32:49;14.10;99.90
76838;DHT22;65797;47.352;8.164;2023-04-24T12:35:26;14.00;99.90
76838;DHT22;65797;47.352;8.164;2023-04-24T12:37:53;14.40;99.90
76838;DHT22;65797;47.352;8.164;2023-04-24T12:40:20;14.20;99.90
76838;DHT22;65797;47.352;8.164;2023-04-24T12:42:50;14.30;99.90
76838;DHT22;65797;47.352;8.164;2023-04-24T12:45:18;14.30;99.90
76838;DHT22;65797;47.352;8.164;2023-04-24T12:47:45;14.50;99.90
76838;DHT22;65797;47.352;8.164;2023-04-24T12:50:13;14.70;99.90
76838;DHT22;65797;47.352;8.164;2023-04-24T12:52:39;14.80;99.90
76838;DHT22;65797;47.352;8.164;2023-04-24T12:55:06;14.80;99.90
76838;DHT22;65797;47.352;8.164;2023-04-24T12:57:34;14.80;99.90
76838;DHT22;65797;47.352;8.164;2023-04-24T13:00:01;15.00;99.90
76838;DHT22;65797;47.352;8.164;2023-04-24T13:02:29;14.90;99.90
76838;DHT22;65797;47.352;8.164;2023-04-24T13:04:56;14.60;99.90
76838;DHT22;65797;47.352;8.164;2023-04-24T13:07:22;14.50;99.90
76838;DHT22;65797;47.352;8.164;2023-04-24T13:09:49;14.60;99.90
76838;DHT22;65797;47.352;8.164;2023-04-24T13:12:16;15.00;99.90
76838;DHT22;65797;47.352;8.164;2023-04-24T13:14:41;14.70;99.90
76838;DHT22;65797;47.352;8.164;2023-04-24T13:17:07;14.90;99.90
76838;DHT22;65797;47.352;8.164;2023-04-24T13:19:40;15.00;99.90
76838;DHT22;65797;47.352;8.164;2023-04-24T13:22:06;15.20;99.90
76838;DHT22;65797;47.352;8.164;2023-04-24T13:24:32;14.90;99.90
76838;DHT22;65797;47.352;8.164;2023-04-24T13:26:59;15.10;99.90
76838;DHT22;65797;47.352;8.164;2023-04-24T13:29:26;14.90;99.90
76838;DHT22;65797;47.352;8.164;2023-04-24T13:31:52;14.60;99.90
76838;DHT22;65797;47.352;8.164;2023-04-24T13:34:25;14.40;99.90
76838;DHT22;65797;47.352;8.164;2023-04-24T13:36:53;14.40;99.90
76838;DHT22;65797;47.352;8.164;2023-04-24T13:39:19;14.50;99.90
76838;DHT22;65797;47.352;8.164;2023-04-24T13:41:44;14.40;99.90
76838;DHT22;65797;47.352;8.164;2023-04-24T13:44:12;14.60;99.90
76838;DHT22;65797;47.352;8.164;2023-04-24T13:46:38;14.60;99.90
76838;DHT22;65797;47.352;8.164;2023-04-24T13:49:03;14.40;99.90
76838;DHT22;65797;47.352;8.164;2023-04-24T13:51:30;14.20;99.90
76838;DHT22;65797;47.352;8.164;2023-04-24T13:53:55;14.00;99.90
76838;DHT22;65797;47.352;8.164;2023-04-24T13:56:22;13.60;99.90
76838;DHT22;65797;47.352;8.164;2023-04-24T13:58:48;13.70;99.90
76838;DHT22;65797;47.352;8.164;2023-04-24T14:01:14;13.70;99.90
76838;DHT22;65797;47.352;8.164;2023-04-24T14:03:41;14.10;99.90
76838;DHT22;65797;47.352;8.164;2023-04-24T14:06:07;14.50;99.90
76838;DHT22;65797;47.352;8.164;2023-04-24T14:08:32;14.70;99.90
76838;DHT22;65797;47.352;8.164;2023-04-24T14:10:58;15.10;99.90
76838;DHT22;65797;47.352;8.164;2023-04-24T14:13:24;15.00;99.90
76838;DHT22;65797;47.352;8.164;2023-04-24T14:15:51;15.00;99.90
76838;DHT22;65797;47.352;8.164;2023-04-24T14:18:18;14.70;99.90
76838;DHT22;65797;47.352;8.164;2023-04-24T14:20:44;14.70;99.90
76838;DHT22;65797;47.352;8.164;2023-04-24T14:23:09;15.20;99.90
76838;DHT22;65797;47.352;8.164;2023-04-24T14:25:35;15.20;99.90
76838;DHT22;65797;47.352;8.164;2023-04-24T14:28:01;14.80;99.90
76838;DHT22;65797;47.352;8.164;2023-04-24T14:30:26;14.70;99.90
76838;DHT22;65797;47.352;8.164;2023-04-24T14:32:52;14.60;99.90
76838;DHT22;65797;47.352;8.164;2023-04-24T14:35:18;14.60;99.90
76838;DHT22;65797;47.352;8.164;2023-04-24T14:37:43;14.40;99.90
76838;DHT22;65797;47.352;8.164;2023-04-24T14:40:10;14.40;99.90
76838;DHT22;65797;47.352;8.164;2023-04-24T14:42:36;14.50;99.90
76838;DHT22;65797;47.352;8.164;2023-04-24T14:45:02;15.20;99.90
76838;DHT22;65797;47.352;8.164;2023-04-24T14:47:28;15.60;99.90
76838;DHT22;65797;47.352;8.164;2023-04-24T14:49:54;15.70;99.90
76838;DHT22;65797;47.352;8.164;2023-04-24T14:52:20;15.90;99.90
76838;DHT22;65797;47.352;8.164;2023-04-24T14:54:46;15.60;99.90
76838;DHT22;65797;47.352;8.164;2023-04-24T14:57:12;15.30;99.90
76838;DHT22;65797;47.352;8.164;2023-04-24T14:59:38;15.30;99.90
76838;DHT22;65797;47.352;8.164;2023-04-24T15:02:05;14.90;99.90
76838;DHT22;65797;47.352;8.164;2023-04-24T15:04:30;15.20;99.90
76838;DHT22;65797;47.352;8.164;2023-04-24T15:06:56;15.20;99.90
76838;DHT22;65797;47.352;8.164;2023-04-24T15:09:23;14.90;99.90
76838;DHT22;65797;47.352;8.164;2023-04-24T15:11:50;14.90;99.90
76838;DHT22;65797;47.352;8.164;2023-04-24T15:14:17;14.90;99.90
76838;DHT22;65797;47.352;8.164;2023-04-24T15:16:43;14.40;99.90
76838;DHT22;65797;47.352;8.164;2023-04-24T15:19:09;14.30;99.90
76838;DHT22;65797;47.352;8.164;2023-04-24T15:26:45;13.70;99.90
76838;DHT22;65797;47.352;8.164;2023-04-24T15:29:11;13.70;99.90
76838;DHT22;65797;47.352;8.164;2023-04-24T15:31:37;13.60;99.90
76838;DHT22;65797;47.352;8.164;2023-04-24T15:34:05;13.60;99.90
76838;DHT22;65797;47.352;8.164;2023-04-24T15:36:31;13.40;99.90
76838;DHT22;65797;47.352;8.164;2023-04-24T15:44:08;13.30;99.90
76838;DHT22;65797;47.352;8.164;2023-04-24T15:46:37;13.60;99.90
76838;DHT22;65797;47.352;8.164;2023-04-24T15:49:02;13.90;99.90
76838;DHT22;65797;47.352;8.164;2023-04-24T15:51:28;13.80;99.90
76838;DHT22;65797;47.352;8.164;2023-04-24T15:53:54;13.70;99.90
76838;DHT22;65797;47.352;8.164;2023-04-24T15:56:20;13.80;99.90
76838;DHT22;65797;47.352;8.164;2023-04-24T15:58:46;13.70;99.90
76838;DHT22;65797;47.352;8.164;2023-04-24T16:01:12;13.50;99.90
76838;DHT22;65797;47.352;8.164;2023-04-24T16:03:38;13.40;99.90
76838;DHT22;65797;47.352;8.164;2023-04-24T16:06:03;13.30;99.90
76838;DHT22;65797;47.352;8.164;2023-04-24T16:08:29;13.10;99.90
76838;DHT22;65797;47.352;8.164;2023-04-24T16:10:55;13.30;99.90
76838;DHT22;65797;47.352;8.164;2023-04-24T16:13:21;13.40;99.90
76838;DHT22;65797;47.352;8.164;2023-04-24T16:15:46;13.40;99.90
76838;DHT22;65797;47.352;8.164;2023-04-24T16:18:12;13.40;99.90
76838;DHT22;65797;47.352;8.164;2023-04-24T16:20:38;13.50;99.90
76838;DHT22;65797;47.352;8.164;2023-04-24T16:23:04;13.40;99.90
76838;DHT22;65797;47.352;8.164;2023-04-24T16:25:29;13.40;99.90
76838;DHT22;65797;47.352;8.164;2023-04-24T16:27:55;13.70;99.90
76838;DHT22;65797;47.352;8.164;2023-04-24T16:30:21;13.50;99.90
76838;DHT22;65797;47.352;8.164;2023-04-24T16:32:47;13.50;99.90
76838;DHT22;65797;47.352;8.164;2023-04-24T16:35:13;13.50;99.90
76838;DHT22;65797;47.352;8.164;2023-04-24T16:37:38;13.40;99.90
76838;DHT22;65797;47.352;8.164;2023-04-24T16:40:04;13.40;99.90
76838;DHT22;65797;47.352;8.164;2023-04-24T16:42:35;13.30;99.90
76838;DHT22;65797;47.352;8.164;2023-04-24T16:45:01;13.30;99.90
76838;DHT22;65797;47.352;8.164;2023-04-24T16:47:27;13.20;99.90
76838;DHT22;65797;47.352;8.164;2023-04-24T16:49:53;13.20;99.90
76838;DHT22;65797;47.352;8.164;2023-04-24T16:52:18;13.10;99.90
76838;DHT22;65797;47.352;8.164;2023-04-24T16:54:44;13.10;99.90
76838;DHT22;65797;47.352;8.164;2023-04-24T16:57:10;13.20;99.90
76838;DHT22;65797;47.352;8.164;2023-04-24T16:59:37;13.20;99.90
76838;DHT22;65797;47.352;8.164;2023-04-24T17:04:05;13.10;99.90
76838;DHT22;65797;47.352;8.164;2023-04-24T17:06:31;13.10;99.90
76838;DHT22;65797;47.352;8.164;2023-04-24T17:11:32;13.10;99.90
76838;DHT22;65797;47.352;8.164;2023-04-24T17:13:57;13.10;99.90
76838;DHT22;65797;47.352;8.164;2023-04-24T17:16:26;13.10;99.90
76838;DHT22;65797;47.352;8.164;2023-04-24T17:18:52;13.10;99.90
76838;DHT22;65797;47.352;8.164;2023-04-24T17:21:17;13.10;99.90
76838;DHT22;65797;47.352;8.164;2023-04-24T17:23:43;13.00;99.90
76838;DHT22;65797;47.352;8.164;2023-04-24T17:26:09;13.00;99.90
76838;DHT22;65797;47.352;8.164;2023-04-24T17:28:35;12.90;99.90
76838;DHT22;65797;47.352;8.164;2023-04-24T17:31:01;12.90;99.90
76838;DHT22;65797;47.352;8.164;2023-04-24T17:33:28;12.80;99.90
76838;DHT22;65797;47.352;8.164;2023-04-24T17:35:55;12.80;99.90
76838;DHT22;65797;47.352;8.164;2023-04-24T17:38:22;12.70;99.90
76838;DHT22;65797;47.352;8.164;2023-04-24T17:40:49;12.70;99.90
76838;DHT22;65797;47.352;8.164;2023-04-24T17:43:22;12.60;99.90
76838;DHT22;65797;47.352;8.164;2023-04-24T17:45:49;12.70;99.90
76838;DHT22;65797;47.352;8.164;2023-04-24T17:48:16;12.70;99.90
76838;DHT22;65797;47.352;8.164;2023-04-24T17:50:42;12.70;99.90
76838;DHT22;65797;47.352;8.164;2023-04-24T17:53:09;12.50;99.90
76838;DHT22;65797;47.352;8.164;2023-04-24T17:55:38;12.50;99.90
76838;DHT22;65797;47.352;8.164;2023-04-24T17:58:04;12.30;99.90
76838;DHT22;65797;47.352;8.164;2023-04-24T18:00:31;12.30;99.90
76838;DHT22;65797;47.352;8.164;2023-04-24T18:02:57;12.20;99.90
76838;DHT22;65797;47.352;8.164;2023-04-24T18:05:27;12.10;99.90
76838;DHT22;65797;47.352;8.164;2023-04-24T18:07:53;12.10;99.90
76838;DHT22;65797;47.352;8.164;2023-04-24T18:10:19;12.00;99.90
76838;DHT22;65797;47.352;8.164;2023-04-24T18:12:46;12.00;99.90
76838;DHT22;65797;47.352;8.164;2023-04-24T18:15:12;11.90;99.90
76838;DHT22;65797;47.352;8.164;2023-04-24T18:17:38;11.80;99.90
76838;DHT22;65797;47.352;8.164;2023-04-24T18:20:04;11.80;99.90
76838;DHT22;65797;47.352;8.164;2023-04-24T18:22:30;11.70;99.90
76838;DHT22;65797;47.352;8.164;2023-04-24T18:24:56;11.80;99.90
76838;DHT22;65797;47.352;8.164;2023-04-24T18:27:21;11.70;99.90
76838;DHT22;65797;47.352;8.164;2023-04-24T18:29:50;11.70;99.90
76838;DHT22;65797;47.352;8.164;2023-04-24T18:32:16;11.60;99.90
76838;DHT22;65797;47.352;8.164;2023-04-24T19:37:20;10.80;99.90
76838;DHT22;65797;47.352;8.164;2023-04-24T19:39:46;10.90;99.90
76838;DHT22;65797;47.352;8.164;2023-04-24T19:42:12;10.90;99.90
76838;DHT22;65797;47.352;8.164;2023-04-24T19:44:38;10.90;99.90
76838;DHT22;65797;47.352;8.164;2023-04-24T19:47:03;10.80;99.90
76838;DHT22;65797;47.352;8.164;2023-04-24T19:49:29;10.80;99.90
76838;DHT22;65797;47.352;8.164;2023-04-24T19:51:55;10.80;99.90
76838;DHT22;65797;47.352;8.164;2023-04-24T19:54:21;10.80;99.90
76838;DHT22;65797;47.352;8.164;2023-04-24T19:56:46;10.80;99.90
76838;DHT22;65797;47.352;8.164;2023-04-24T19:59:12;10.70;99.90
76838;DHT22;65797;47.352;8.164;2023-04-24T20:01:38;10.70;99.90
76838;DHT22;65797;47.352;8.164;2023-04-24T20:04:07;10.70;99.90
76838;DHT22;65797;47.352;8.164;2023-04-24T20:06:36;10.60;99.90
76838;DHT22;65797;47.352;8.164;2023-04-24T20:09:02;10.60;99.90
76838;DHT22;65797;47.352;8.164;2023-04-24T20:11:30;10.60;99.90
76838;DHT22;65797;47.352;8.164;2023-04-24T20:13:56;10.50;99.90
76838;DHT22;65797;47.352;8.164;2023-04-24T20:16:22;10.50;99.90
76838;DHT22;65797;47.352;8.164;2023-04-24T20:18:47;10.40;99.90
76838;DHT22;65797;47.352;8.164;2023-04-24T20:21:13;10.30;99.90
76838;DHT22;65797;47.352;8.164;2023-04-24T20:23:39;10.30;99.90
76838;DHT22;65797;47.352;8.164;2023-04-24T20:26:04;10.20;99.90
76838;DHT22;65797;47.352;8.164;2023-04-24T20:28:32;10.20;99.90
